Time;durP1;ratioP1;P1;durP2;ratioP2;P2;SDS_P1;SDS_P2;PMS_P1;PMS_P2;Temp;Humidity;BMP_temperature;BMP_pressure;BME280_temperature;BME280_humidity;BME280_pressure;Samples;Min_cycle;Max_cycle;Signal;HPM_P1;HPM_P2
2023/10/11 00:01:31;;;;;;;8.03;6.03;;;;;;;;;;5004680;28;21277;-83
2023/10/11 00:04:03;;;;;;;14.70;5.93;;;;;;;;;;5015483;28;20670;-85
2023/10/11 00:06:33;;;;;;;9.43;5.73;;;;;;;;;;5016595;28;20627;-83
2023/10/11 00:09:01;;;;;;;9.80;6.33;;;;;;;;;;5011763;28;20705;-82
2023/10/11 00:11:30;;;;;;;11.83;6.30;;;;;;;;;;5000206;28;20691;-82
2023/10/11 00:13:58;;;;;;;11.50;6.43;;;;;;;;;;4999828;28;20699;-82
2023/10/11 00:16:31;;;;;;;9.87;7.00;;;;;;;;;;4998780;28;20835;-83
2023/10/11 00:18:59;;;;;;;15.97;7.40;;;;;;;;;;5002857;28;20725;-82
2023/10/11 00:21:40;;;;;;;8.50;5.37;;;;;;;;;;4984320;28;20671;-83
2023/10/11 00:24:09;;;;;;;10.90;6.07;;;;;;;;;;4998607;28;20674;-82
2023/10/11 00:26:40;;;;;;;9.10;6.63;;;;;;;;;;4994063;28;20729;-83
2023/10/11 00:29:09;;;;;;;10.57;6.07;;;;;;;;;;4998630;28;20597;-82
2023/10/11 00:31:38;;;;;;;12.90;6.10;;;;;;;;;;4981125;28;20640;-83
2023/10/11 00:34:10;;;;;;;14.83;7.00;;;;;;;;;;4981659;28;20711;-85
2023/10/11 00:36:42;;;;;;;11.70;6.50;;;;;;;;;;4980625;28;20589;-83
2023/10/11 00:39:16;;;;;;;12.33;6.40;;;;;;;;;;4981126;28;21191;-83
2023/10/11 00:41:48;;;;;;;14.37;6.43;;;;;;;;;;5000819;28;20667;-83
2023/10/11 00:44:19;;;;;;;10.87;6.10;;;;;;;;;;4981401;28;20713;-82
2023/10/11 00:46:57;;;;;;;13.90;5.93;;;;;;;;;;4998157;28;21001;-82
2023/10/11 00:49:34;;;;;;;13.77;6.87;;;;;;;;;;5015831;28;20591;-82
2023/10/11 00:52:06;;;;;;;10.80;5.90;;;;;;;;;;4999140;28;20687;-83
2023/10/11 00:54:35;;;;;;;11.70;6.47;;;;;;;;;;5016836;28;20675;-82
2023/10/11 00:57:04;;;;;;;12.17;6.30;;;;;;;;;;4998343;28;20738;-83
2023/10/11 00:59:35;;;;;;;10.20;6.00;;;;;;;;;;5015395;28;20654;-82
2023/10/11 01:02:05;;;;;;;11.10;6.60;;;;;;;;;;4994380;28;20728;-82
2023/10/11 01:04:38;;;;;;;10.17;6.67;;;;;;;;;;4982939;28;21219;-83
2023/10/11 01:07:08;;;;;;;9.10;6.83;;;;;;;;;;4998693;28;20692;-85
2023/10/11 01:09:37;;;;;;;15.60;7.10;;;;;;;;;;5001696;28;20782;-85
2023/10/11 01:12:06;;;;;;;14.50;5.90;;;;;;;;;;5020457;28;20685;-82
2023/10/11 01:14:56;;;;;;;22.70;7.07;;;;;;;;;;4985098;28;20699;-83
2023/10/11 01:17:23;;;;;;;10.47;6.00;;;;;;;;;;5000056;28;20660;-82
2023/10/11 01:19:52;;;;;;;8.73;5.37;;;;;;;;;;4992891;28;20659;-83
2023/10/11 01:22:22;;;;;;;14.57;6.10;;;;;;;;;;5013363;28;20690;-82
2023/10/11 01:24:50;;;;;;;9.97;5.93;;;;;;;;;;4978397;28;20610;-82
2023/10/11 01:27:18;;;;;;;14.67;7.50;;;;;;;;;;4996397;28;21171;-83
2023/10/11 01:29:47;;;;;;;8.13;6.63;;;;;;;;;;4979315;28;20607;-83
2023/10/11 01:32:15;;;;;;;10.20;5.93;;;;;;;;;;4997304;28;20681;-82
2023/10/11 01:34:44;;;;;;;12.77;6.70;;;;;;;;;;4996884;28;20605;-83
2023/10/11 01:37:14;;;;;;;9.73;5.80;;;;;;;;;;4995388;28;20631;-82
2023/10/11 01:39:44;;;;;;;14.77;6.37;;;;;;;;;;4998679;28;20696;-83
2023/10/11 01:42:12;;;;;;;9.63;6.30;;;;;;;;;;5015810;28;20607;-82
2023/10/11 01:44:40;;;;;;;15.13;5.60;;;;;;;;;;5014860;28;20571;-84
2023/10/11 01:47:09;;;;;;;10.03;6.70;;;;;;;;;;5016197;28;21061;-82
2023/10/11 01:49:39;;;;;;;15.10;6.27;;;;;;;;;;4997841;28;20635;-82
2023/10/11 01:52:07;;;;;;;13.10;7.53;;;;;;;;;;4994266;28;20711;-83
2023/10/11 01:54:36;;;;;;;11.90;5.90;;;;;;;;;;5016634;28;20715;-82
2023/10/11 01:57:10;;;;;;;12.40;6.33;;;;;;;;;;5016546;28;20710;-82
2023/10/11 01:59:39;;;;;;;8.53;7.27;;;;;;;;;;4998665;28;21065;-82
2023/10/11 02:02:10;;;;;;;10.30;6.50;;;;;;;;;;4998536;28;20683;-83
2023/10/11 02:04:40;;;;;;;13.10;6.93;;;;;;;;;;5014403;28;20698;-82
2023/10/11 02:07:09;;;;;;;16.97;6.80;;;;;;;;;;4995784;28;20718;-83
2023/10/11 02:09:37;;;;;;;12.33;6.67;;;;;;;;;;4980340;28;20632;-84
2023/10/11 02:12:10;;;;;;;11.90;6.50;;;;;;;;;;4998906;28;21310;-82
2023/10/11 02:14:39;;;;;;;12.20;5.37;;;;;;;;;;4983175;28;20586;-82
2023/10/11 02:17:07;;;;;;;17.07;7.20;;;;;;;;;;4982217;28;20687;-83
2023/10/11 02:19:35;;;;;;;11.60;6.60;;;;;;;;;;4982516;28;20598;-82
2023/10/11 02:22:03;;;;;;;31.40;23.80;;;;;;;;;;4982568;28;20711;-83
2023/10/11 02:24:35;;;;;;;146.20;105.60;;;;;;;;;;4985196;28;20758;-82
2023/10/11 02:27:06;;;;;;;89.93;59.67;;;;;;;;;;5007137;28;20684;-83
2023/10/11 02:29:35;;;;;;;18.97;8.97;;;;;;;;;;4999994;28;20656;-82
2023/10/11 02:32:08;;;;;;;37.37;24.43;;;;;;;;;;4983410;28;20713;-82
2023/10/11 02:34:36;;;;;;;194.63;127.87;;;;;;;;;;4982726;28;20933;-83
2023/10/11 02:37:10;;;;;;;25.40;16.93;;;;;;;;;;4982446;28;20709;-82
2023/10/11 02:39:44;;;;;;;17.50;11.70;;;;;;;;;;4982407;28;20669;-82
2023/10/11 02:42:19;;;;;;;17.03;12.93;;;;;;;;;;4982311;28;20634;-83
2023/10/11 02:44:48;;;;;;;12.10;10.00;;;;;;;;;;5003373;28;20770;-82
2023/10/11 02:47:22;;;;;;;15.27;10.80;;;;;;;;;;5001042;28;20697;-83
2023/10/11 02:49:53;;;;;;;10.23;7.50;;;;;;;;;;4999776;28;20744;-82
2023/10/11 02:52:29;;;;;;;11.90;6.93;;;;;;;;;;4965915;28;20632;-82
2023/10/11 02:54:59;;;;;;;12.90;6.60;;;;;;;;;;4982886;28;20654;-82
2023/10/11 02:57:27;;;;;;;10.63;6.90;;;;;;;;;;4982737;28;20664;-82
2023/10/11 02:59:57;;;;;;;12.07;7.40;;;;;;;;;;4999922;28;20707;-84
2023/10/11 03:02:29;;;;;;;15.70;6.33;;;;;;;;;;4974682;28;20700;-83
2023/10/11 03:05:01;;;;;;;11.07;6.47;;;;;;;;;;4983646;28;20714;-82
2023/10/11 03:07:33;;;;;;;17.30;6.53;;;;;;;;;;5000847;28;20575;-82
2023/10/11 03:10:02;;;;;;;15.53;7.63;;;;;;;;;;4985005;28;20590;-82
2023/10/11 03:12:31;;;;;;;19.20;7.63;;;;;;;;;;5020738;28;20743;-82
2023/10/11 03:15:08;;;;;;;12.23;5.70;;;;;;;;;;4985768;28;20612;-82
2023/10/11 03:17:41;;;;;;;19.30;6.67;;;;;;;;;;5003048;28;20618;-85
2023/10/11 03:20:23;;;;;;;10.10;7.13;;;;;;;;;;5021410;28;20704;-83
2023/10/11 03:22:52;;;;;;;10.47;6.50;;;;;;;;;;4989579;28;21333;-83
2023/10/11 03:25:22;;;;;;;14.90;6.50;;;;;;;;;;5002146;28;20724;-82
2023/10/11 03:27:52;;;;;;;13.40;6.00;;;;;;;;;;5019869;28;20652;-82
2023/10/11 03:30:24;;;;;;;12.33;6.60;;;;;;;;;;4996103;28;20676;-81
2023/10/11 03:32:52;;;;;;;15.00;5.97;;;;;;;;;;5002441;28;20657;-83
2023/10/11 03:35:24;;;;;;;15.00;6.40;;;;;;;;;;5001903;28;20689;-83
2023/10/11 03:37:59;;;;;;;11.53;6.23;;;;;;;;;;5009861;28;20660;-83
2023/10/11 03:40:35;;;;;;;15.93;6.40;;;;;;;;;;4982798;28;21043;-82
2023/10/11 03:43:11;;;;;;;11.57;6.90;;;;;;;;;;4998436;28;20677;-82
2023/10/11 03:45:49;;;;;;;10.90;6.03;;;;;;;;;;4987647;28;20725;-82
2023/10/11 03:48:17;;;;;;;10.70;6.33;;;;;;;;;;4979295;28;20682;-82
2023/10/11 03:50:51;;;;;;;13.77;6.17;;;;;;;;;;4961899;28;20611;-82
2023/10/11 03:53:19;;;;;;;15.03;6.63;;;;;;;;;;4979029;28;20686;-82
2023/10/11 03:55:49;;;;;;;13.07;6.63;;;;;;;;;;5015676;28;20656;-82
2023/10/11 03:58:32;;;;;;;16.07;7.00;;;;;;;;;;5017956;28;20660;-83
2023/10/11 04:01:08;;;;;;;15.73;6.77;;;;;;;;;;5017099;28;20595;-84
2023/10/11 04:03:39;;;;;;;10.87;6.77;;;;;;;;;;4999754;28;20747;-86
2023/10/11 04:06:14;;;;;;;13.40;6.93;;;;;;;;;;5017495;28;20639;-83
2023/10/11 04:08:43;;;;;;;11.90;6.57;;;;;;;;;;4987035;28;21015;-82
2023/10/11 04:11:17;;;;;;;16.60;7.20;;;;;;;;;;5000452;28;20609;-83
2023/10/11 04:13:47;;;;;;;11.87;6.60;;;;;;;;;;4990905;28;20691;-83
2023/10/11 04:16:18;;;;;;;11.63;6.30;;;;;;;;;;4979684;28;20610;-82
2023/10/11 04:18:46;;;;;;;18.90;7.00;;;;;;;;;;4980969;28;20612;-83
2023/10/11 04:21:26;;;;;;;22.33;7.50;;;;;;;;;;4981264;28;20693;-83
2023/10/11 04:23:57;;;;;;;18.20;7.57;;;;;;;;;;5014250;28;20695;-83
2023/10/11 04:26:33;;;;;;;11.40;6.67;;;;;;;;;;5001037;28;20629;-83
2023/10/11 04:29:06;;;;;;;12.40;6.27;;;;;;;;;;5000064;28;20556;-83
2023/10/11 04:31:53;;;;;;;8.23;5.87;;;;;;;;;;5008118;28;20628;-82
2023/10/11 04:34:24;;;;;;;10.27;5.80;;;;;;;;;;4997283;28;20685;-82
2023/10/11 04:36:55;;;;;;;14.40;6.60;;;;;;;;;;4980519;28;21021;-83
2023/10/11 04:39:33;;;;;;;13.47;6.40;;;;;;;;;;4981118;28;21059;-82
2023/10/11 04:42:03;;;;;;;8.83;5.23;;;;;;;;;;4997210;28;20640;-84
2023/10/11 04:44:42;;;;;;;12.53;6.97;;;;;;;;;;4991883;28;20643;-83
2023/10/11 04:47:12;;;;;;;22.57;6.60;;;;;;;;;;4987800;28;20657;-82
2023/10/11 04:49:43;;;;;;;15.37;7.23;;;;;;;;;;5014202;28;20678;-83
2023/10/11 04:52:14;;;;;;;14.60;6.30;;;;;;;;;;5017841;28;20683;-83
2023/10/11 04:54:53;;;;;;;11.23;6.17;;;;;;;;;;5000296;28;20658;-83
2023/10/11 04:57:32;;;;;;;15.53;6.80;;;;;;;;;;5003436;28;21086;-83
2023/10/11 05:00:00;;;;;;;11.77;6.90;;;;;;;;;;5005715;28;20723;-82
2023/10/11 05:02:32;;;;;;;15.03;6.53;;;;;;;;;;4984237;28;20690;-81
2023/10/11 05:05:05;;;;;;;15.07;7.73;;;;;;;;;;4982950;28;20723;-82
2023/10/11 05:07:33;;;;;;;11.87;6.63;;;;;;;;;;5005495;28;20679;-82
2023/10/11 05:10:29;;;;;;;11.77;6.80;;;;;;;;;;4964535;28;21318;-83
2023/10/11 05:13:05;;;;;;;16.83;6.67;;;;;;;;;;4995814;28;20691;-84
2023/10/11 05:15:42;;;;;;;20.87;8.23;;;;;;;;;;4982637;28;21046;-84
2023/10/11 05:18:18;;;;;;;14.93;6.63;;;;;;;;;;4982273;28;20704;-85
2023/10/11 05:20:57;;;;;;;16.10;7.60;;;;;;;;;;4982980;28;20742;-83
2023/10/11 05:23:40;;;;;;;13.77;7.20;;;;;;;;;;4984571;28;20705;-84
2023/10/11 05:29:12;;;;;;;10.63;7.13;;;;;;;;;;4995939;28;21131;-85
2023/10/11 05:32:04;;;;;;;14.60;7.90;;;;;;;;;;5028368;28;20643;-81
2023/10/11 05:34:50;;;;;;;15.87;7.10;;;;;;;;;;4972710;28;21195;-82
2023/10/11 05:51:19;;;;;;;20.10;7.03;;;;;;;;;;4989304;28;20631;-83
2023/10/11 05:53:50;;;;;;;20.03;7.87;;;;;;;;;;5008844;28;20664;-83
2023/10/11 05:56:21;;;;;;;16.23;7.33;;;;;;;;;;5012958;28;20730;-84
2023/10/11 05:58:50;;;;;;;12.70;6.50;;;;;;;;;;4993589;28;20667;-86
2023/10/11 06:01:21;;;;;;;16.00;7.47;;;;;;;;;;5006814;28;20678;-84
2023/10/11 06:03:51;;;;;;;11.37;6.50;;;;;;;;;;5005136;28;20742;-83
2023/10/11 06:06:27;;;;;;;10.70;6.43;;;;;;;;;;5026317;28;20600;-84
2023/10/11 06:08:57;;;;;;;18.40;7.50;;;;;;;;;;5007753;28;21123;-84
2023/10/11 06:11:29;;;;;;;14.57;6.70;;;;;;;;;;5022320;28;20702;-82
2023/10/11 06:13:58;;;;;;;11.90;6.47;;;;;;;;;;4988752;28;20616;-83
2023/10/11 06:16:26;;;;;;;18.90;6.63;;;;;;;;;;4988345;28;20681;-83
2023/10/11 06:19:15;;;;;;;17.80;7.03;;;;;;;;;;5006760;28;20589;-83
2023/10/11 06:24:34;;;;;;;16.13;6.83;;;;;;;;;;4983150;28;20266;-82
2023/10/11 06:28:09;;;;;;;26.10;6.53;;;;;;;;;;4991234;28;20726;-82
2023/10/11 06:30:06;;;;;;;13.83;6.20;;;;;;;;;;4995956;28;20696;-82
2023/10/11 06:32:36;;;;;;;20.90;7.50;;;;;;;;;;4955033;28;20621;-81
2023/10/11 06:35:06;;;;;;;15.23;7.73;;;;;;;;;;4970098;28;20650;-82
2023/10/11 06:37:36;;;;;;;13.43;5.37;;;;;;;;;;4953155;28;21047;-82
2023/10/11 06:40:14;;;;;;;9.63;5.77;;;;;;;;;;4998883;28;20719;-83
2023/10/11 06:42:45;;;;;;;21.70;11.80;;;;;;;;;;4972062;28;20585;-82
2023/10/11 06:45:17;;;;;;;13.80;6.90;;;;;;;;;;4991639;28;20761;-82
2023/10/11 06:47:50;;;;;;;10.90;6.40;;;;;;;;;;4989222;28;20732;-82
2023/10/11 06:50:24;;;;;;;10.97;6.03;;;;;;;;;;4989898;28;20645;-82
2023/10/11 06:52:53;;;;;;;22.90;6.07;;;;;;;;;;5023182;28;20676;-81
2023/10/11 06:55:25;;;;;;;11.20;6.47;;;;;;;;;;5022032;28;21277;-81
2023/10/11 06:57:54;;;;;;;20.03;7.23;;;;;;;;;;4969537;28;20776;-82
2023/10/11 07:00:24;;;;;;;11.93;6.30;;;;;;;;;;4954248;28;20770;-82
2023/10/11 07:02:54;;;;;;;8.97;6.13;;;;;;;;;;5002200;28;20624;-81
2023/10/11 07:05:25;;;;;;;12.33;6.13;;;;;;;;;;4984586;28;20820;-83
2023/10/11 07:07:56;;;;;;;15.33;6.30;;;;;;;;;;4972410;28;20677;-82
2023/10/11 07:10:28;;;;;;;13.57;5.60;;;;;;;;;;4985412;28;20669;-85
2023/10/11 07:13:04;;;;;;;10.73;5.87;;;;;;;;;;4974707;28;20702;-85
2023/10/11 07:15:38;;;;;;;8.70;5.50;;;;;;;;;;4998327;28;20690;-84
2023/10/11 07:18:10;;;;;;;8.70;5.33;;;;;;;;;;4964956;28;21149;-85
2023/10/11 07:20:49;;;;;;;12.00;6.20;;;;;;;;;;4964930;28;20693;-85
2023/10/11 07:23:20;;;;;;;13.37;5.30;;;;;;;;;;4993756;28;20708;-85
2023/10/11 07:25:59;;;;;;;7.93;6.37;;;;;;;;;;4991472;28;20668;-84
2023/10/11 07:28:36;;;;;;;12.70;6.20;;;;;;;;;;5004113;28;20700;-84
2023/10/11 07:31:05;;;;;;;7.03;5.37;;;;;;;;;;4993653;28;20669;-85
2023/10/11 07:33:36;;;;;;;13.93;7.00;;;;;;;;;;4988537;28;20669;-86
2023/10/11 07:36:11;;;;;;;8.67;5.90;;;;;;;;;;4968220;28;20658;-85
2023/10/11 07:38:43;;;;;;;10.83;6.10;;;;;;;;;;4983308;28;20589;-85
2023/10/11 07:41:18;;;;;;;9.50;6.00;;;;;;;;;;5000246;28;21021;-84
2023/10/11 07:43:46;;;;;;;12.77;5.67;;;;;;;;;;4985035;28;20699;-85
2023/10/11 07:46:15;;;;;;;10.40;6.57;;;;;;;;;;4966800;28;20704;-85
2023/10/11 07:48:43;;;;;;;11.43;5.93;;;;;;;;;;5000227;28;20673;-85
2023/10/11 07:51:11;;;;;;;15.20;7.23;;;;;;;;;;4982391;28;20674;-85
2023/10/11 07:53:43;;;;;;;17.13;6.57;;;;;;;;;;4999179;28;20687;-85
2023/10/11 07:56:15;;;;;;;11.20;6.17;;;;;;;;;;4981269;28;20660;-84
2023/10/11 07:58:46;;;;;;;8.77;6.17;;;;;;;;;;4980187;28;20967;-84
2023/10/11 08:01:27;;;;;;;11.73;7.10;;;;;;;;;;5001836;28;20686;-86
2023/10/11 08:03:55;;;;;;;11.47;6.50;;;;;;;;;;4978796;28;21038;-86
2023/10/11 08:06:25;;;;;;;24.23;6.90;;;;;;;;;;4970519;28;20630;-88
2023/10/11 08:08:59;;;;;;;11.40;6.40;;;;;;;;;;4998593;28;20617;-85
2023/10/11 08:11:36;;;;;;;11.50;5.70;;;;;;;;;;4998732;28;20676;-86
2023/10/11 08:14:13;;;;;;;8.17;6.40;;;;;;;;;;4999733;28;20681;-85
2023/10/11 08:16:47;;;;;;;12.57;6.17;;;;;;;;;;4965881;28;20586;-84
2023/10/11 08:19:15;;;;;;;16.10;6.93;;;;;;;;;;5009912;28;20606;-84
2023/10/11 08:21:54;;;;;;;21.40;6.80;;;;;;;;;;5001527;28;20728;-85
2023/10/11 08:24:25;;;;;;;9.40;6.40;;;;;;;;;;4983142;28;20687;-85
2023/10/11 08:26:54;;;;;;;14.80;7.13;;;;;;;;;;4982309;28;20586;-86
2023/10/11 08:29:29;;;;;;;10.80;6.20;;;;;;;;;;4983307;28;20712;-85
2023/10/11 08:31:58;;;;;;;10.40;6.80;;;;;;;;;;5015940;28;20688;-85
2023/10/11 08:34:27;;;;;;;9.37;7.00;;;;;;;;;;5000122;28;20725;-86
2023/10/11 08:36:56;;;;;;;14.50;7.43;;;;;;;;;;5007715;28;20721;-85
2023/10/11 08:39:35;;;;;;;10.03;6.67;;;;;;;;;;5001945;28;20676;-85
2023/10/11 08:42:11;;;;;;;14.63;7.20;;;;;;;;;;5001650;28;20651;-85
2023/10/11 08:44:44;;;;;;;11.00;6.57;;;;;;;;;;4992692;28;20696;-85
2023/10/11 08:47:16;;;;;;;14.57;7.30;;;;;;;;;;4981725;28;20697;-85
2023/10/11 08:49:48;;;;;;;9.93;6.97;;;;;;;;;;5001089;28;20665;-85
2023/10/11 08:52:20;;;;;;;14.50;8.07;;;;;;;;;;4982423;28;20696;-86
2023/10/11 08:54:50;;;;;;;11.43;7.67;;;;;;;;;;4986034;28;20602;-85
2023/10/11 08:57:23;;;;;;;12.40;7.40;;;;;;;;;;4966576;28;20677;-85
2023/10/11 08:59:51;;;;;;;9.67;6.80;;;;;;;;;;5000770;28;20658;-85
2023/10/11 09:02:23;;;;;;;13.07;7.13;;;;;;;;;;4999900;28;20618;-86
2023/10/11 09:05:06;;;;;;;12.50;7.60;;;;;;;;;;5000557;28;20744;-85
2023/10/11 09:07:39;;;;;;;14.43;8.40;;;;;;;;;;4965943;28;20692;-84
2023/10/11 09:10:27;;;;;;;19.73;8.13;;;;;;;;;;4983045;28;20696;-85
2023/10/11 09:12:59;;;;;;;16.90;7.73;;;;;;;;;;5003853;28;20705;-84
2023/10/11 09:15:40;;;;;;;12.37;7.13;;;;;;;;;;4985875;28;21302;-84
2023/10/11 09:18:13;;;;;;;11.30;7.63;;;;;;;;;;4969859;28;20606;-85
2023/10/11 09:20:42;;;;;;;11.20;7.53;;;;;;;;;;5001368;28;20740;-83
2023/10/11 09:23:19;;;;;;;11.23;7.00;;;;;;;;;;4985707;28;20705;-85
2023/10/11 09:25:59;;;;;;;12.73;7.60;;;;;;;;;;4984745;28;20728;-84
2023/10/11 09:28:40;;;;;;;11.82;7.20;;;;;;;;;;4989360;28;20818;-84
2023/10/11 09:31:14;;;;;;;14.37;8.03;;;;;;;;;;4990835;28;20246;-86
2023/10/11 09:33:50;;;;;;;10.90;7.80;;;;;;;;;;5005302;28;20676;-82
2023/10/11 09:36:20;;;;;;;8.07;7.43;;;;;;;;;;5005771;28;20624;-83
2023/10/11 09:38:54;;;;;;;11.53;7.53;;;;;;;;;;5015265;28;20650;-84
2023/10/11 09:41:40;;;;;;;16.17;8.33;;;;;;;;;;4986953;28;20638;-84
2023/10/11 09:44:14;;;;;;;13.53;8.33;;;;;;;;;;4982943;28;20708;-83
2023/10/11 09:46:44;;;;;;;14.07;8.23;;;;;;;;;;4974098;28;20692;-84
2023/10/11 09:49:13;;;;;;;16.60;8.70;;;;;;;;;;5020153;28;20719;-84
2023/10/11 09:51:43;;;;;;;9.07;8.13;;;;;;;;;;5004448;28;21052;-85
2023/10/11 09:54:13;;;;;;;11.37;8.60;;;;;;;;;;5023304;28;20676;-85
2023/10/11 09:56:48;;;;;;;8.70;7.63;;;;;;;;;;5004868;28;20622;-85
2023/10/11 09:59:24;;;;;;;11.07;8.53;;;;;;;;;;4987563;28;20649;-84
2023/10/11 10:01:57;;;;;;;14.53;8.87;;;;;;;;;;5005453;28;20662;-85
2023/10/11 10:04:44;;;;;;;11.70;8.10;;;;;;;;;;4990628;28;20721;-85
2023/10/11 10:07:13;;;;;;;12.50;8.50;;;;;;;;;;4987500;28;20764;-84
2023/10/11 10:09:52;;;;;;;23.03;10.00;;;;;;;;;;5006125;28;20777;-86
2023/10/11 10:12:25;;;;;;;11.30;8.27;;;;;;;;;;5004776;28;20649;-85
2023/10/11 10:15:07;;;;;;;11.43;8.73;;;;;;;;;;5020616;28;20613;-86
2023/10/11 10:17:38;;;;;;;12.43;8.33;;;;;;;;;;4987969;28;20700;-87
2023/10/11 10:20:28;;;;;;;16.03;9.27;;;;;;;;;;4986616;28;21232;-85
2023/10/11 10:23:12;;;;;;;12.70;8.90;;;;;;;;;;5003546;28;20705;-85
2023/10/11 10:25:45;;;;;;;11.03;9.00;;;;;;;;;;5000533;28;20652;-85
2023/10/11 10:28:29;;;;;;;15.30;8.80;;;;;;;;;;5004176;28;20611;-84
2023/10/11 10:31:10;;;;;;;15.43;8.20;;;;;;;;;;4960342;28;20681;-85
2023/10/11 10:33:39;;;;;;;15.53;9.20;;;;;;;;;;4985476;28;20597;-86
2023/10/11 10:36:28;;;;;;;13.10;8.77;;;;;;;;;;5003945;28;20748;-87
2023/10/11 10:42:06;;;;;;;10.90;8.40;;;;;;;;;;5006748;28;20668;-85
2023/10/11 10:44:34;;;;;;;13.40;8.70;;;;;;;;;;5023507;28;20950;-84
2023/10/11 10:47:06;;;;;;;9.80;8.80;;;;;;;;;;5024928;28;20700;-85
2023/10/11 10:49:41;;;;;;;18.40;8.97;;;;;;;;;;4989392;28;20585;-86
2023/10/11 10:52:15;;;;;;;12.40;9.23;;;;;;;;;;5011302;28;20673;-85
2023/10/11 10:54:54;;;;;;;14.47;9.73;;;;;;;;;;4985044;28;20693;-86
2023/10/11 10:57:23;;;;;;;15.50;9.50;;;;;;;;;;4989075;28;20689;-86
2023/10/11 10:59:51;;;;;;;11.07;9.43;;;;;;;;;;5003010;28;20700;-85
2023/10/11 11:02:21;;;;;;;17.20;10.17;;;;;;;;;;4984120;28;20732;-85
2023/10/11 11:04:52;;;;;;;14.10;10.23;;;;;;;;;;5005867;28;21162;-85
2023/10/11 11:07:23;;;;;;;11.33;9.53;;;;;;;;;;4988311;28;20720;-85
2023/10/11 11:09:54;;;;;;;13.17;10.27;;;;;;;;;;4989048;28;20990;-86
2023/10/11 11:12:28;;;;;;;14.37;10.50;;;;;;;;;;5005753;28;20618;-83
2023/10/11 11:14:58;;;;;;;23.07;10.87;;;;;;;;;;5009355;28;20633;-83
2023/10/11 11:17:46;;;;;;;10.87;9.13;;;;;;;;;;4988279;28;20749;-84
2023/10/11 11:20:27;;;;;;;15.50;9.77;;;;;;;;;;4971378;28;20633;-84
2023/10/11 11:22:56;;;;;;;13.73;9.90;;;;;;;;;;5012624;28;20653;-85
2023/10/11 11:25:28;;;;;;;11.10;10.00;;;;;;;;;;4990243;28;20606;-84
2023/10/11 11:28:20;;;;;;;12.50;9.67;;;;;;;;;;4981484;28;20617;-87
2023/10/11 11:31:10;;;;;;;13.30;9.90;;;;;;;;;;4988354;28;20693;-85
2023/10/11 11:34:05;;;;;;;16.03;10.33;;;;;;;;;;4989602;28;20602;-86
2023/10/11 11:36:34;;;;;;;13.93;10.17;;;;;;;;;;4987264;28;20671;-84
2023/10/11 11:39:25;;;;;;;18.23;10.17;;;;;;;;;;5006292;28;20617;-84
2023/10/11 11:41:55;;;;;;;11.60;9.57;;;;;;;;;;4980237;28;20720;-84
2023/10/11 11:44:24;;;;;;;10.23;9.20;;;;;;;;;;4987031;28;20633;-84
2023/10/11 11:46:52;;;;;;;15.47;10.27;;;;;;;;;;4999290;28;20702;-84
2023/10/11 11:49:23;;;;;;;18.43;11.17;;;;;;;;;;5004331;28;20694;-87
2023/10/11 11:51:52;;;;;;;16.47;10.47;;;;;;;;;;5009721;28;20704;-87
2023/10/11 11:54:20;;;;;;;13.73;10.23;;;;;;;;;;4989969;28;20690;-87
2023/10/11 11:56:47;;;;;;;16.13;10.90;;;;;;;;;;4973642;28;20733;-87
2023/10/11 11:59:19;;;;;;;12.03;10.60;;;;;;;;;;4987653;28;20598;-88
2023/10/11 12:01:49;;;;;;;11.90;10.77;;;;;;;;;;5003136;28;20725;-88
2023/10/11 12:04:22;;;;;;;15.47;10.43;;;;;;;;;;4986427;28;20642;-88
2023/10/11 12:06:50;;;;;;;12.20;10.77;;;;;;;;;;5008028;28;20772;-88
2023/10/11 12:09:22;;;;;;;15.47;11.23;;;;;;;;;;5003413;28;20724;-88
2023/10/11 12:11:50;;;;;;;17.07;11.37;;;;;;;;;;4980569;28;20649;-87
2023/10/11 12:14:22;;;;;;;21.60;11.20;;;;;;;;;;4988676;28;20662;-88
2023/10/11 12:16:51;;;;;;;20.93;10.80;;;;;;;;;;4970514;28;20693;-87
2023/10/11 12:19:20;;;;;;;18.00;12.03;;;;;;;;;;4994045;28;20650;-89
2023/10/11 12:21:49;;;;;;;15.63;10.83;;;;;;;;;;4995034;28;20740;-85
2023/10/11 12:24:21;;;;;;;17.50;11.27;;;;;;;;;;4986883;28;20713;-88
2023/10/11 12:26:49;;;;;;;13.03;10.83;;;;;;;;;;5007526;28;21219;-85
2023/10/11 12:29:21;;;;;;;17.47;11.63;;;;;;;;;;4980305;28;20688;-87
2023/10/11 12:31:50;;;;;;;13.40;9.87;;;;;;;;;;5016595;28;20610;-86
2023/10/11 12:34:24;;;;;;;17.33;11.30;;;;;;;;;;5016634;28;20618;-86
2023/10/11 12:36:53;;;;;;;17.30;11.93;;;;;;;;;;4995931;28;20649;-86
2023/10/11 12:39:25;;;;;;;14.93;10.20;;;;;;;;;;5013153;28;20624;-84
2023/10/11 12:41:55;;;;;;;15.03;11.30;;;;;;;;;;4991418;28;20645;-86
2023/10/11 12:44:24;;;;;;;15.60;11.30;;;;;;;;;;4996414;28;21097;-84
2023/10/11 12:46:52;;;;;;;16.10;12.30;;;;;;;;;;4997172;28;20701;-85
2023/10/11 12:49:24;;;;;;;18.87;11.57;;;;;;;;;;5000609;28;20669;-86
2023/10/11 12:51:53;;;;;;;11.60;10.33;;;;;;;;;;4983532;28;20710;-84
2023/10/11 12:54:23;;;;;;;18.73;11.80;;;;;;;;;;4984074;28;20689;-85
2023/10/11 12:56:51;;;;;;;15.13;12.10;;;;;;;;;;4980252;28;21161;-83
2023/10/11 12:59:22;;;;;;;12.83;11.53;;;;;;;;;;4998802;28;20725;-85
2023/10/11 13:01:52;;;;;;;15.73;11.77;;;;;;;;;;4964677;28;20645;-82
2023/10/11 13:04:29;;;;;;;13.20;11.30;;;;;;;;;;4973427;28;20793;-83
2023/10/11 13:07:00;;;;;;;19.20;11.53;;;;;;;;;;4982598;28;21363;-83
2023/10/11 13:09:30;;;;;;;15.07;11.87;;;;;;;;;;4989741;28;20717;-84
2023/10/11 13:12:02;;;;;;;13.20;11.13;;;;;;;;;;4990573;28;20614;-84
2023/10/11 13:14:33;;;;;;;12.87;11.50;;;;;;;;;;4988691;28;21043;-84
2023/10/11 13:17:05;;;;;;;19.40;12.50;;;;;;;;;;4976632;28;20782;-85
2023/10/11 13:19:33;;;;;;;15.83;11.90;;;;;;;;;;4989004;28;20713;-85
2023/10/11 13:22:09;;;;;;;17.13;11.83;;;;;;;;;;4994469;28;20736;-84
2023/10/11 13:24:42;;;;;;;15.05;9.90;;;;;;;;;;4969115;28;20801;-86
2023/10/11 13:27:10;;;;;;;13.60;11.40;;;;;;;;;;4984718;28;20254;-87
2023/10/11 13:29:39;;;;;;;14.57;11.40;;;;;;;;;;5007885;28;20730;-88
2023/10/11 13:32:12;;;;;;;14.50;11.57;;;;;;;;;;4976720;28;20685;-87
2023/10/11 13:34:42;;;;;;;12.50;11.30;;;;;;;;;;5001870;28;20760;-86
2023/10/11 13:37:13;;;;;;;25.90;11.90;;;;;;;;;;5005924;28;20614;-87
2023/10/11 13:39:46;;;;;;;17.17;11.90;;;;;;;;;;5006053;28;20996;-87
2023/10/11 13:42:15;;;;;;;17.57;11.73;;;;;;;;;;4986671;28;20745;-90
2023/10/11 13:44:44;;;;;;;16.30;11.43;;;;;;;;;;4986267;28;20724;-87
2023/10/11 13:47:17;;;;;;;17.80;12.17;;;;;;;;;;4977144;28;20709;-88
2023/10/11 13:49:47;;;;;;;12.53;11.10;;;;;;;;;;5009231;28;20609;-85
2023/10/11 13:52:19;;;;;;;12.97;11.57;;;;;;;;;;4999674;28;20669;-87
2023/10/11 13:54:52;;;;;;;15.63;11.80;;;;;;;;;;4966634;28;20694;-87
2023/10/11 13:57:21;;;;;;;22.27;11.93;;;;;;;;;;5001132;28;20678;-84
2023/10/11 13:59:51;;;;;;;16.27;10.97;;;;;;;;;;5000040;28;20708;-86
2023/10/11 14:02:36;;;;;;;13.10;11.00;;;;;;;;;;4966473;28;20727;-86
2023/10/11 14:05:14;;;;;;;13.00;11.80;;;;;;;;;;4988112;28;20757;-87
2023/10/11 14:07:52;;;;;;;12.70;11.50;;;;;;;;;;5020626;28;20650;-87
2023/10/11 14:10:27;;;;;;;14.77;12.13;;;;;;;;;;5006113;28;20697;-87
2023/10/11 14:13:07;;;;;;;12.80;11.70;;;;;;;;;;4985392;28;20666;-87
2023/10/11 14:15:50;;;;;;;17.53;11.97;;;;;;;;;;4971320;28;20638;-88
2023/10/11 14:34:23;;;;;;;17.60;12.27;;;;;;;;;;4866270;28;20656;-88
2023/10/11 14:36:57;;;;;;;18.30;11.23;;;;;;;;;;4954054;28;20638;-88
2023/10/11 14:42:45;;;;;;;14.50;11.30;;;;;;;;;;5025635;23;20694;-68
2023/10/11 14:45:14;;;;;;;13.03;11.10;;;;;;;;;;5037465;28;20723;-68
2023/10/11 14:47:45;;;;;;;13.80;11.40;;;;;;;;;;5043944;28;20707;-68
2023/10/11 14:50:14;;;;;;;18.70;11.87;;;;;;;;;;5043432;28;20687;-69
2023/10/11 14:52:43;;;;;;;12.87;11.70;;;;;;;;;;5045559;28;21059;-68
2023/10/11 14:55:16;;;;;;;12.53;11.23;;;;;;;;;;5041924;28;20664;-68
2023/10/11 14:57:44;;;;;;;12.33;11.23;;;;;;;;;;5039209;28;20782;-69
2023/10/11 15:00:16;;;;;;;13.43;11.87;;;;;;;;;;5008711;28;20611;-69
2023/10/11 15:02:44;;;;;;;14.87;11.20;;;;;;;;;;5042099;28;20726;-68
2023/10/11 15:05:15;;;;;;;17.63;11.40;;;;;;;;;;5021519;28;20711;-68
2023/10/11 15:07:46;;;;;;;21.77;11.40;;;;;;;;;;5040158;28;20679;-68
2023/10/11 15:10:14;;;;;;;12.73;10.77;;;;;;;;;;5041885;28;20878;-69
2023/10/11 15:12:43;;;;;;;17.90;11.60;;;;;;;;;;5041086;28;21248;-68
2023/10/11 15:15:12;;;;;;;16.33;11.50;;;;;;;;;;5039200;28;20715;-68
2023/10/11 15:17:41;;;;;;;17.30;11.10;;;;;;;;;;5034477;28;20718;-68
2023/10/11 15:20:09;;;;;;;17.57;11.00;;;;;;;;;;5037789;28;20699;-68
2023/10/11 15:22:37;;;;;;;15.03;10.40;;;;;;;;;;5039200;28;20724;-68
2023/10/11 15:25:08;;;;;;;13.90;11.83;;;;;;;;;;5041071;28;21229;-68
2023/10/11 15:27:36;;;;;;;15.27;11.40;;;;;;;;;;5040454;28;20691;-67
2023/10/11 15:30:06;;;;;;;19.63;11.70;;;;;;;;;;5039275;28;20702;-68
2023/10/11 15:32:34;;;;;;;13.13;11.43;;;;;;;;;;5020714;28;20757;-68
2023/10/11 15:35:04;;;;;;;24.90;12.10;;;;;;;;;;5033564;28;20715;-68
2023/10/11 15:37:33;;;;;;;12.03;10.77;;;;;;;;;;5041746;28;20667;-68
2023/10/11 15:40:01;;;;;;;15.70;11.77;;;;;;;;;;5022654;28;20683;-67